Time;durP1;ratioP1;P1;durP2;ratioP2;P2;SDS_P1;SDS_P2;PMS_P1;PMS_P2;Temp;Humidity;BMP_temperature;BMP_pressure;BME280_temperature;BME280_humidity;BME280_pressure;Samples;Min_cycle;Max_cycle;Signal;HPM_P1;HPM_P2
2023/10/13 00:02:08;;;;;;;12.57;8.35;;;;;;;12.98;100.00;100829.81;7394197;19;20014;-70
2023/10/13 00:04:38;;;;;;;14.90;6.60;;;;;;;12.96;100.00;100827.19;7395297;19;20088;-69
2023/10/13 00:07:09;;;;;;;9.45;6.00;;;;;;;12.96;100.00;100828.97;7393959;19;20017;-71
2023/10/13 00:09:40;;;;;;;9.65;5.35;;;;;;;12.97;100.00;100833.34;7394426;19;20011;-70
2023/10/13 00:12:13;;;;;;;12.25;5.80;;;;;;;12.96;100.00;100828.97;7394320;19;20370;-71
2023/10/13 00:14:45;;;;;;;11.67;6.00;;;;;;;12.97;100.00;100833.34;7392494;19;20077;-70
2023/10/13 00:17:20;;;;;;;11.93;6.15;;;;;;;12.96;100.00;100826.34;7393689;19;21137;-70
2023/10/13 00:19:52;;;;;;;10.45;6.30;;;;;;;12.94;100.00;100821.13;7394964;19;20045;-70
2023/10/13 00:22:22;;;;;;;10.80;6.53;;;;;;;12.97;100.00;100838.63;7394857;19;20025;-70
2023/10/13 00:24:58;;;;;;;11.18;6.82;;;;;;;12.97;100.00;100833.34;7394781;19;20010;-70
2023/10/13 00:27:30;;;;;;;11.18;5.82;;;;;;;12.97;100.00;100833.34;7393675;19;20014;-70
2023/10/13 00:32:42;;;;;;;10.15;6.20;;;;;;;12.98;100.00;100840.34;7400409;19;20494;-70
2023/10/13 00:35:13;;;;;;;10.68;6.60;;;;;;;12.97;100.00;100834.19;7401545;19;20018;-70
2023/10/13 00:37:44;;;;;;;8.85;6.20;;;;;;;12.98;100.00;100835.09;7399935;19;20017;-70
2023/10/13 00:40:41;;;;;;;14.20;6.53;;;;;;;13.00;100.00;100833.25;7399153;19;20014;-70
2023/10/13 00:45:57;;;;;;;14.88;6.68;;;;;;;13.00;100.00;100831.50;7397903;19;20018;-71
2023/10/13 00:48:28;;;;;;;12.52;6.18;;;;;;;13.01;100.00;100838.44;7398100;19;20477;-71
2023/10/13 00:50:59;;;;;;;12.52;6.78;;;;;;;13.03;100.00;100833.16;7401363;19;20075;-70
2023/10/13 00:53:26;;;;;;;10.68;6.35;;;;;;;13.02;100.00;100828.81;7400399;19;20025;-71
2023/10/13 00:56:05;;;;;;;9.00;6.32;;;;;;;13.03;100.00;100834.00;7398245;19;20022;-71
2023/10/13 00:58:33;;;;;;;12.27;6.70;;;;;;;13.03;100.00;100836.66;7398463;19;20014;-71
2023/10/13 01:01:17;;;;;;;13.13;6.93;;;;;;;13.04;100.00;100834.88;7400765;19;20023;-71
2023/10/13 01:03:44;;;;;;;8.32;6.10;;;;;;;13.04;100.00;100829.59;7397370;19;20379;-70
2023/10/13 01:06:13;;;;;;;11.75;7.40;;;;;;;13.04;100.00;100826.97;7400581;19;20033;-71
2023/10/13 01:08:41;;;;;;;13.98;6.72;;;;;;;13.04;100.00;100819.06;7398384;19;20027;-70
2023/10/13 01:11:13;;;;;;;12.85;7.28;;;;;;;13.04;100.00;100819.06;7398249;19;20014;-70
2023/10/13 01:13:41;;;;;;;13.15;7.20;;;;;;;13.05;100.00;100818.16;7399676;19;20401;-71
2023/10/13 01:16:10;;;;;;;15.70;7.43;;;;;;;13.04;100.00;100822.56;7400639;19;20021;-71
2023/10/13 01:18:47;;;;;;;14.05;7.15;;;;;;;13.04;100.00;100812.03;7398029;19;20015;-71
2023/10/13 01:21:20;;;;;;;18.23;8.23;;;;;;;13.04;100.00;100811.16;7397481;19;20033;-71
2023/10/13 01:23:50;;;;;;;15.05;8.07;;;;;;;13.04;100.00;100819.94;7400393;19;20030;-71
2023/10/13 01:26:23;;;;;;;14.98;8.48;;;;;;;13.03;100.00;100812.09;7400362;19;20017;-70
2023/10/13 01:28:49;;;;;;;13.82;8.07;;;;;;;13.05;100.00;100818.16;7397346;19;20435;-71
2023/10/13 01:31:24;;;;;;;16.15;9.65;;;;;;;13.04;100.00;100819.06;7397378;19;20014;-71
2023/10/13 01:33:54;;;;;;;13.55;8.70;;;;;;;13.05;100.00;100812.88;7398108;19;20007;-71
2023/10/13 01:36:35;;;;;;;19.13;8.73;;;;;;;13.07;100.00;100821.63;7399214;19;20007;-71
2023/10/13 01:39:03;;;;;;;17.80;8.45;;;;;;;13.03;100.00;100815.56;7396943;19;20011;-70
2023/10/13 01:41:32;;;;;;;17.33;8.93;;;;;;;13.08;100.00;100823.34;7399433;19;20011;-70
2023/10/13 01:43:58;;;;;;;18.95;9.57;;;;;;;13.09;100.00;100822.44;7394405;19;20011;-70
2023/10/13 01:46:28;;;;;;;19.15;10.75;;;;;;;13.10;100.00;100810.97;7399281;19;20469;-71
2023/10/13 01:48:54;;;;;;;23.23;11.98;;;;;;;13.12;100.00;100811.78;7396902;19;20017;-70
2023/10/13 01:51:23;;;;;;;23.85;11.90;;;;;;;13.13;100.00;100813.53;7398646;19;20018;-70
2023/10/13 01:53:56;;;;;;;22.17;11.95;;;;;;;13.14;100.00;100810.00;7398398;19;20011;-70
2023/10/13 01:56:30;;;;;;;19.40;11.80;;;;;;;13.16;100.00;100804.66;7396936;19;20018;-71
2023/10/13 01:58:55;;;;;;;;;;;;;;;13.16;100.00;100810.78;7397230;19;20010;-70
2023/10/13 02:01:29;;;;;;;24.42;12.52;;;;;;;13.18;100.00;100806.34;7399224;19;19923;-70
2023/10/13 02:04:01;;;;;;;23.25;13.73;;;;;;;13.19;100.00;100805.44;7398630;19;20014;-70
2023/10/13 02:06:32;;;;;;;21.42;13.85;;;;;;;13.21;100.00;100800.09;7397123;19;20415;-69
2023/10/13 02:09:05;;;;;;;27.05;14.07;;;;;;;13.23;100.00;100793.03;7396710;19;20017;-70
2023/10/13 02:11:37;;;;;;;24.13;14.68;;;;;;;13.25;100.00;100790.34;7398103;19;20017;-70
2023/10/13 02:14:03;;;;;;;25.35;15.35;;;;;;;13.26;100.00;100787.66;7396835;19;20017;-70
2023/10/13 02:16:31;;;;;;;25.88;15.98;;;;;;;13.28;100.00;100787.59;7396111;19;20006;-71
2023/10/13 02:18:57;;;;;;;26.85;15.90;;;;;;;13.29;100.00;100795.44;7395666;19;20481;-71
2023/10/13 02:21:31;;;;;;;31.85;17.52;;;;;;;13.32;100.00;100794.47;7398081;19;20011;-71
2023/10/13 02:23:59;;;;;;;;;;;;;;;13.33;100.00;100794.44;7399293;19;20018;-71
2023/10/13 02:26:37;;;;;;;33.58;17.95;;;;;;;13.33;100.00;100789.19;7395990;19;19937;-71
2023/10/13 02:29:07;;;;;;;37.20;19.73;;;;;;;13.35;100.00;100781.22;7395939;19;20018;-71
2023/10/13 02:31:37;;;;;;;35.65;18.95;;;;;;;13.36;100.00;100773.25;7397864;19;20018;-71
2023/10/13 02:34:07;;;;;;;36.88;21.05;;;;;;;13.39;100.00;100769.69;7397169;19;20014;-71
2023/10/13 02:36:46;;;;;;;42.70;22.17;;;;;;;13.40;100.00;100758.25;7395760;19;20015;-71
2023/10/13 02:39:13;;;;;;;37.45;22.30;;;;;;;13.43;100.00;100758.13;7397962;19;20134;-70
2023/10/13 02:41:47;;;;;;;40.70;23.60;;;;;;;13.44;100.00;100757.22;7396597;19;20011;-69
2023/10/13 02:44:26;;;;;;;35.60;23.25;;;;;;;13.46;100.00;100750.13;7395456;19;20031;-69
2023/10/13 02:46:55;;;;;;;43.83;23.80;;;;;;;13.48;100.00;100744.81;7396333;19;20006;-70
2023/10/13 02:49:21;;;;;;;42.60;24.20;;;;;;;13.50;100.00;100743.00;7396508;19;20006;-70
2023/10/13 02:51:52;;;;;;;38.38;22.73;;;;;;;13.54;100.00;100743.75;7396975;19;20033;-70
2023/10/13 02:54:19;;;;;;;42.35;23.48;;;;;;;13.54;100.00;100741.97;7395300;19;20035;-70
2023/10/13 02:56:56;;;;;;;45.63;24.77;;;;;;;13.56;100.00;100748.06;7396166;19;20087;-70
2023/10/13 02:59:34;;;;;;;46.03;26.13;;;;;;;13.58;100.00;100737.47;7396954;19;20014;-70
2023/10/13 03:02:07;;;;;;;41.28;25.15;;;;;;;13.59;100.00;100731.28;7395486;19;20033;-71
2023/10/13 03:04:33;;;;;;;40.90;24.85;;;;;;;13.60;100.00;100740.91;7394844;19;20014;-71
2023/10/13 03:07:01;;;;;;;43.45;25.83;;;;;;;13.61;100.00;100726.78;7396122;19;20386;-71
2023/10/13 03:09:28;;;;;;;44.60;25.27;;;;;;;13.60;100.00;100722.47;7396123;19;20074;-71
2023/10/13 03:11:56;;;;;;;41.60;23.55;;;;;;;13.61;100.00;100734.69;7396449;19;20019;-71
2023/10/13 03:14:26;;;;;;;45.47;25.70;;;;;;;13.63;100.00;100728.47;7395317;19;20383;-70
2023/10/13 03:16:55;;;;;;;41.00;25.42;;;;;;;13.64;100.00;100724.06;7395961;19;20014;-69
2023/10/13 03:19:32;;;;;;;35.38;23.15;;;;;;;13.65;100.00;100720.53;7395992;19;20071;-70
2023/10/13 03:22:09;;;;;;;43.72;24.65;;;;;;;13.65;100.00;100718.72;7396527;19;20020;-71
2023/10/13 03:24:41;;;;;;;43.40;24.35;;;;;;;13.66;100.00;100716.94;7396327;19;20025;-69
2023/10/13 03:27:08;;;;;;;41.95;25.90;;;;;;;13.65;100.00;100712.63;7395179;19;20017;-70
2023/10/13 03:29:42;;;;;;;38.80;24.65;;;;;;;13.65;100.00;100702.91;7395538;19;20480;-70
2023/10/13 03:32:15;;;;;;;40.67;24.73;;;;;;;13.66;100.00;100707.28;7396262;19;20017;-70
2023/10/13 03:34:50;;;;;;;42.63;25.17;;;;;;;13.67;100.00;100709.00;7393406;19;20470;-71
2023/10/13 03:37:37;;;;;;;40.85;23.95;;;;;;;13.69;100.00;100706.31;7394157;19;20014;-70
2023/10/13 03:40:06;;;;;;;35.92;23.65;;;;;;;13.69;100.00;100703.66;7395804;19;20048;-71
2023/10/13 03:42:39;;;;;;;39.78;23.80;;;;;;;13.70;100.00;100700.13;7395241;19;20389;-70
2023/10/13 03:45:12;;;;;;;40.20;23.60;;;;;;;13.71;100.00;100699.22;7394502;19;20082;-70
2023/10/13 03:47:42;;;;;;;38.63;23.65;;;;;;;13.72;100.00;100705.34;7393927;19;20019;-70
2023/10/13 03:52:57;;;;;;;34.95;23.73;;;;;;;13.74;100.00;100699.09;7392455;19;20535;-70
2023/10/13 03:55:27;;;;;;;38.40;23.67;;;;;;;13.76;100.00;100701.66;7392688;19;20453;-70
2023/10/13 03:57:55;;;;;;;33.97;22.48;;;;;;;13.74;100.00;100687.69;7393715;19;20017;-69
2023/10/13 04:00:27;;;;;;;35.25;23.58;;;;;;;13.77;100.00;100691.06;7394456;19;20011;-70
2023/10/13 04:03:07;;;;;;;35.78;23.90;;;;;;;13.78;100.00;100691.94;7392678;19;20026;-71
2023/10/13 04:05:45;;;;;;;34.20;22.23;;;;;;;13.78;100.00;100689.31;7394568;19;20037;-70
2023/10/13 04:19:08;;;;;;;36.15;21.90;;;;;;;13.76;100.00;100680.56;7397827;19;20493;-71
2023/10/13 04:21:42;;;;;;;32.50;22.52;;;;;;;13.74;100.00;100679.78;7401545;19;20011;-70
2023/10/13 04:29:55;;;;;;;31.37;21.07;;;;;;;13.70;100.00;100679.03;7398271;19;20026;-70
2023/10/13 04:32:32;;;;;;;30.10;20.50;;;;;;;13.71;100.00;100678.13;7401590;19;20362;-71
2023/10/13 04:35:08;;;;;;;30.08;20.50;;;;;;;13.69;100.00;100674.69;7398573;19;20014;-71
2023/10/13 04:37:48;;;;;;;32.67;21.63;;;;;;;13.69;100.00;100670.25;7399826;19;20014;-70
2023/10/13 04:40:19;;;;;;;31.25;20.33;;;;;;;13.69;100.00;100664.13;7397688;19;20033;-70
2023/10/13 04:42:53;;;;;;;31.67;21.17;;;;;;;13.69;100.00;100661.50;7401690;19;20010;-71
2023/10/13 04:48:17;;;;;;;28.98;20.83;;;;;;;13.68;100.00;100652.69;7399414;19;20018;-70
2023/10/13 04:50:50;;;;;;;30.23;19.77;;;;;;;13.68;100.00;100654.50;7401034;19;20010;-70
2023/10/13 04:53:33;;;;;;;35.35;22.02;;;;;;;13.68;100.00;100651.84;7400667;19;20014;-70
2023/10/13 04:56:08;;;;;;;28.85;19.75;;;;;;;13.66;100.00;100644.00;7399945;19;20383;-71
2023/10/13 05:04:38;;;;;;;27.52;17.95;;;;;;;13.61;100.00;100637.16;7397562;19;20045;-71
2023/10/13 05:44:56;;;;;;;22.15;17.60;;;;;;;13.37;100.00;100645.06;7398766;19;20130;-71
2023/10/13 05:50:13;;;;;;;24.45;17.88;;;;;;;13.36;100.00;100646.78;7399069;19;20006;-70
2023/10/13 06:30:58;;;;;;;20.20;15.52;;;;;;;13.64;100.00;100639.72;7389933;19;20037;-70
2023/10/13 06:33:28;;;;;;;24.02;15.68;;;;;;;13.67;100.00;100629.91;7394509;19;20034;-70
2023/10/13 06:35:58;;;;;;;25.52;15.57;;;;;;;13.71;100.00;100632.44;7394972;19;20010;-71
2023/10/13 06:38:30;;;;;;;22.67;15.60;;;;;;;13.75;100.00;100629.63;7394524;19;20031;-71
2023/10/13 06:41:05;;;;;;;21.23;15.90;;;;;;;13.80;100.00;100632.97;7396357;19;20006;-71
2023/10/13 06:43:39;;;;;;;24.60;15.88;;;;;;;13.87;100.00;100630.09;7396409;19;20022;-70
2023/10/13 06:46:14;;;;;;;22.55;15.07;;;;;;;13.94;100.00;100621.91;7396573;19;20017;-71
2023/10/13 06:48:43;;;;;;;19.10;14.85;;;;;;;14.01;100.00;100618.13;7394280;19;20035;-68
2023/10/13 06:51:17;;;;;;;28.35;14.90;;;;;;;14.10;100.00;100626.56;7395864;19;20016;-70
2023/10/13 06:53:47;;;;;;;18.67;14.18;;;;;;;14.17;100.00;100617.50;7396969;19;20021;-70
2023/10/13 06:56:27;;;;;;;18.65;14.25;;;;;;;14.24;100.00;100619.00;7395829;19;20018;-70
2023/10/13 06:58:59;;;;;;;16.17;12.85;;;;;;;14.34;100.00;100616.84;7394789;19;20010;-71
2023/10/13 07:01:28;;;;;;;18.48;12.80;;;;;;;14.42;100.00;100612.13;7394441;19;20011;-71
2023/10/13 07:04:01;;;;;;;18.05;12.73;;;;;;;14.48;100.00;100614.53;7393905;19;20423;-70
2023/10/13 07:06:35;;;;;;;18.92;12.50;;;;;;;14.57;100.00;100608.03;7396365;19;20014;-71
2023/10/13 07:09:04;;;;;;;16.02;12.70;;;;;;;14.65;100.00;100610.38;7393701;19;20022;-70
2023/10/13 07:11:38;;;;;;;16.48;12.65;;;;;;;14.71;100.00;100607.50;7394413;19;20014;-71
2023/10/13 07:14:16;;;;;;;14.05;11.80;;;;;;;14.79;100.00;100612.44;7395382;19;20027;-71
2023/10/13 07:16:49;;;;;;;15.40;11.90;;;;;;;14.83;100.00;100617.53;7396132;19;20077;-71
2023/10/13 07:19:18;;;;;;;14.25;11.52;;;;;;;14.91;100.00;100616.34;7394808;19;20018;-70
2023/10/13 07:21:47;;;;;;;14.30;11.13;;;;;;;14.97;100.00;100606.41;7393597;19;20489;-72
2023/10/13 07:24:16;;;;;;;15.60;11.05;;;;;;;15.01;100.00;100612.38;7396497;19;20074;-71
2023/10/13 07:26:57;;;;;;;16.02;11.48;;;;;;;15.06;100.00;100602.47;7395184;19;20028;-70
2023/10/13 07:29:26;;;;;;;14.98;11.45;;;;;;;15.11;100.00;100600.53;7395250;19;20015;-71
2023/10/13 07:31:55;;;;;;;15.05;11.93;;;;;;;15.17;100.00;100614.41;7395086;19;20331;-70
2023/10/13 07:34:31;;;;;;;17.23;11.82;;;;;;;15.21;100.00;100616.81;7395125;19;20078;-70
2023/10/13 07:37:03;;;;;;;15.10;11.32;;;;;;;15.23;100.00;100607.06;7394519;19;20505;-70
2023/10/13 07:39:33;;;;;;;15.68;11.75;;;;;;;15.27;100.00;100606.00;7395223;19;20014;-71
2023/10/13 07:42:15;;;;;;;13.18;11.65;;;;;;;15.27;100.00;100595.41;7395186;19;20037;-70
2023/10/13 07:44:45;;;;;;;16.02;11.40;;;;;;;15.31;100.00;100590.88;7395359;19;20032;-69
2023/10/13 07:47:17;;;;;;;13.93;11.20;;;;;;;15.39;100.00;100599.31;7394954;19;20033;-69
2023/10/13 07:49:50;;;;;;;14.32;11.02;;;;;;;15.43;100.00;100582.41;7395688;19;20014;-69
2023/10/13 07:52:26;;;;;;;12.32;10.48;;;;;;;15.51;100.00;100592.63;7394613;19;20070;-68
2023/10/13 07:55:00;;;;;;;13.70;10.57;;;;;;;15.59;100.00;100598.41;7395843;19;20010;-69
2023/10/13 07:57:31;;;;;;;15.25;11.27;;;;;;;15.68;100.00;100604.22;7392286;19;20477;-68
2023/10/13 08:00:25;;;;;;;13.15;10.10;;;;;;;15.76;100.00;100592.38;7392987;19;20018;-69
2023/10/13 08:03:08;;;;;;;11.40;9.53;;;;;;;15.86;100.00;100581.38;7394128;19;20019;-69
2023/10/13 08:05:55;;;;;;;13.00;10.32;;;;;;;15.93;100.00;100583.66;7394183;19;20446;-68
2023/10/13 08:08:25;;;;;;;14.93;10.32;;;;;;;16.01;100.00;100579.81;7392472;19;20014;-69
2023/10/13 08:10:55;;;;;;;14.00;9.90;;;;;;;16.06;100.00;100573.41;7394040;19;20019;-69
2023/10/13 08:13:26;;;;;;;15.65;11.05;;;;;;;16.10;100.00;100569.66;7393277;19;20461;-67
2023/10/13 08:16:00;;;;;;;13.85;10.05;;;;;;;16.18;100.00;100587.81;7392949;19;20085;-69
2023/10/13 08:18:32;;;;;;;11.63;9.55;;;;;;;16.21;100.00;100581.50;7392620;19;20015;-68
2023/10/13 08:21:03;;;;;;;12.98;9.43;;;;;;;16.25;100.00;100583.06;7394346;19;20351;-68
2023/10/13 08:23:57;;;;;;;14.13;9.07;;;;;;;16.27;100.00;100583.88;7393813;19;20018;-69
2023/10/13 08:26:38;;;;;;;14.23;9.27;;;;;;;16.31;100.00;100571.34;7394070;19;20477;-68
2023/10/13 08:32:13;;;;;;;10.27;8.80;;;;;;;16.41;100.00;100546.97;7391185;19;20011;-68
2023/10/13 08:34:59;;;;;;;11.00;8.82;;;;;;;16.47;100.00;100545.84;7392478;19;20010;-67
2023/10/13 08:37:33;;;;;;;10.75;9.00;;;;;;;16.52;100.00;100546.47;7392864;19;20037;-69
2023/10/13 08:43:11;;;;;;;12.73;8.40;;;;;;;16.60;100.00;100543.44;7393588;19;20082;-68
2023/10/13 08:46:06;;;;;;;12.18;8.77;;;;;;;16.63;100.00;100540.63;7394080;19;20087;-68
2023/10/13 08:48:35;;;;;;;11.40;7.57;;;;;;;16.68;100.00;100541.25;7391684;19;20019;-70
2023/10/13 08:51:12;;;;;;;11.57;8.75;;;;;;;16.72;100.00;100534.00;7391450;19;20082;-68
2023/10/13 08:53:52;;;;;;;10.63;8.07;;;;;;;16.76;100.00;100532.94;7396718;19;20390;-67
2023/10/13 08:56:33;;;;;;;9.52;7.35;;;;;;;16.82;100.00;100534.38;7398587;19;20492;-65
2023/10/13 08:59:38;;;;;;;17.17;7.90;;;;;;;16.89;100.00;100539.28;7401460;19;20015;-67
2023/10/13 09:02:18;;;;;;;10.18;6.85;;;;;;;16.97;100.00;100535.44;7398892;19;20015;-67
2023/10/13 09:04:59;;;;;;;12.70;8.00;;;;;;;17.02;100.00;100534.28;7397454;19;20014;-67
2023/10/13 09:07:28;;;;;;;8.45;6.88;;;;;;;17.07;100.00;100526.06;7399534;19;20090;-65
2023/10/13 09:10:11;;;;;;;12.60;6.85;;;;;;;17.12;100.00;100534.63;7400191;19;20015;-65
2023/10/13 09:12:52;;;;;;;11.40;7.03;;;;;;;17.17;100.00;100529.09;7400067;19;20090;-66
2023/10/13 09:15:59;;;;;;;10.20;7.65;;;;;;;17.21;100.00;100527.97;7398823;19;20098;-66
2023/10/13 09:18:46;;;;;;;12.00;6.95;;;;;;;17.25;100.00;100521.59;7397375;19;20016;-67
2023/10/13 09:24:16;;;;;;;8.95;6.40;;;;;;;17.36;100.00;100511.28;7399464;19;20508;-66
2023/10/13 09:26:44;;;;;;;9.93;7.72;;;;;;;17.41;100.00;100508.34;7400000;19;20015;-67
2023/10/13 09:29:19;;;;;;;9.68;5.93;;;;;;;17.43;100.00;100504.69;7397250;19;20027;-67
2023/10/13 09:31:50;;;;;;;7.57;5.95;;;;;;;17.48;100.00;100508.88;7399476;19;20017;-70
2023/10/13 09:34:23;;;;;;;11.43;6.18;;;;;;;17.48;100.00;100511.53;7396428;19;20010;-69
2023/10/13 09:36:55;;;;;;;10.10;6.13;;;;;;;17.47;100.00;100504.53;7396653;19;20031;-70
2023/10/13 09:39:35;;;;;;;7.25;5.78;;;;;;;17.45;100.00;100506.41;7397326;19;20029;-69
2023/10/13 09:42:07;;;;;;;7.00;5.18;;;;;;;17.47;100.00;100494.75;7399755;19;20471;-69
2023/10/13 09:44:34;;;;;;;9.27;5.95;;;;;;;17.49;100.00;100492.91;7399282;19;20015;-69
2023/10/13 09:47:07;;;;;;;11.13;5.82;;;;;;;17.51;100.00;100491.00;7398302;19;20034;-69
2023/10/13 09:49:48;;;;;;;8.43;6.03;;;;;;;17.53;100.00;100488.28;7398498;19;20023;-70
2023/10/13 09:52:25;;;;;;;9.40;6.88;;;;;;;17.57;100.00;100495.97;7398697;19;20025;-68
2023/10/13 09:54:59;;;;;;;9.00;5.97;;;;;;;17.59;100.00;100485.25;7396039;19;20018;-71
2023/10/13 09:57:34;;;;;;;10.98;6.47;;;;;;;17.63;100.00;100470.91;7397526;19;20074;-71
2023/10/13 10:00:15;;;;;;;7.78;6.18;;;;;;;17.67;100.00;100480.41;7396866;19;20011;-68
2023/10/13 10:02:44;;;;;;;8.55;5.90;;;;;;;17.70;100.00;100466.94;7397149;19;20010;-71
2023/10/13 10:05:34;;;;;;;9.45;6.20;;;;;;;17.71;100.00;100450.09;7394009;19;20458;-71
2023/10/13 10:08:01;;;;;;;9.43;6.45;;;;;;;17.77;100.00;100454.22;7395915;19;20018;-68
2023/10/13 10:10:46;;;;;;;11.95;7.28;;;;;;;17.75;100.00;100445.47;7395808;19;20481;-69
2023/10/13 10:13:22;;;;;;;11.00;6.18;;;;;;;17.79;100.00;100456.78;7396788;19;20010;-69
2023/10/13 10:15:54;;;;;;;10.88;6.53;;;;;;;17.81;100.00;100457.56;7396972;19;20021;-68
2023/10/13 10:18:25;;;;;;;7.53;5.20;;;;;;;17.80;100.00;100464.66;7396246;19;20023;-68
2023/10/13 10:21:07;;;;;;;12.40;6.03;;;;;;;17.82;100.00;100459.25;7396797;19;20085;-68
2023/10/13 10:23:39;;;;;;;12.00;7.03;;;;;;;17.83;100.00;100447.69;7397047;19;20013;-65
2023/10/13 10:26:16;;;;;;;11.55;6.57;;;;;;;17.85;100.00;100453.78;7396889;19;20010;-66
2023/10/13 10:28:46;;;;;;;10.75;6.60;;;;;;;17.87;100.00;100458.06;7395035;19;20070;-67
2023/10/13 10:31:17;;;;;;;12.40;9.00;;;;;;;17.88;100.00;100454.47;7397153;19;20011;-67
2023/10/13 10:33:47;;;;;;;8.05;6.43;;;;;;;17.88;100.00;100457.13;7395556;19;20019;-67
2023/10/13 10:36:30;;;;;;;9.05;6.95;;;;;;;17.87;100.00;100446.59;7397437;19;20015;-68
2023/10/13 10:39:04;;;;;;;13.25;7.00;;;;;;;17.85;100.00;100436.03;7395193;19;20011;-65
2023/10/13 10:41:44;;;;;;;;;;;;;;;17.84;100.00;100437.00;7397603;19;20368;-67
2023/10/13 10:44:21;;;;;;;17.13;12.40;;;;;;;17.83;100.00;100434.44;7397524;19;19918;-66
2023/10/13 10:46:57;;;;;;;13.32;7.85;;;;;;;17.82;100.00;100428.28;7396945;19;20010;-72
2023/10/13 10:49:30;;;;;;;10.93;7.45;;;;;;;17.81;100.00;100415.09;7396358;19;20018;-69
2023/10/13 10:52:04;;;;;;;11.70;7.15;;;;;;;17.79;100.00;100403.72;7395322;19;20105;-69
2023/10/13 10:54:33;;;;;;;12.27;7.90;;;;;;;17.79;100.00;100401.06;7396445;19;20029;-70
2023/10/13 10:57:17;;;;;;;14.85;8.10;;;;;;;17.75;100.00;100369.41;7394898;19;20018;-69
2023/10/13 10:59:46;;;;;;;11.43;7.60;;;;;;;17.74;100.00;100378.31;7396347;19;20041;-68
2023/10/13 11:02:25;;;;;;;11.63;8.05;;;;;;;17.74;100.00;100375.66;7395977;19;20037;-68
2023/10/13 11:04:55;;;;;;;12.77;7.95;;;;;;;17.73;100.00;100373.06;7393517;19;20011;-69
2023/10/13 11:07:28;;;;;;;13.90;7.03;;;;;;;17.75;100.00;100369.41;7396063;19;20014;-69
2023/10/13 11:10:06;;;;;;;11.23;7.03;;;;;;;17.76;100.00;100364.94;7395132;19;20021;-69
2023/10/13 11:12:35;;;;;;;10.32;6.75;;;;;;;17.81;100.00;100362.03;7395612;19;20006;-69
2023/10/13 11:15:05;;;;;;;11.13;6.93;;;;;;;17.82;100.00;100361.94;7392705;19;20011;-68
2023/10/13 11:17:43;;;;;;;10.73;7.38;;;;;;;17.87;100.00;100367.00;7392967;19;20036;-69
2023/10/13 11:20:17;;;;;;;10.07;6.40;;;;;;;17.90;100.00;100364.16;7394418;19;20022;-69
2023/10/13 11:22:52;;;;;;;13.38;7.10;;;;;;;17.92;100.00;100360.44;7393872;19;20002;-70
2023/10/13 11:25:29;;;;;;;12.48;6.85;;;;;;;17.96;100.00;100357.63;7392907;19;20010;-69
2023/10/13 11:28:06;;;;;;;14.40;7.15;;;;;;;17.99;100.00;100360.13;7394191;19;20486;-70
2023/10/13 11:30:45;;;;;;;11.93;6.80;;;;;;;18.02;100.00;100355.50;7395010;19;20098;-69
2023/10/13 11:33:18;;;;;;;13.82;6.40;;;;;;;18.04;100.00;100348.28;7393724;19;20014;-69
2023/10/13 11:36:03;;;;;;;12.57;6.20;;;;;;;18.07;100.00;100340.16;7393622;19;20018;-69
2023/10/13 11:38:49;;;;;;;11.45;6.45;;;;;;;18.12;100.00;100339.00;7393949;19;20015;-69
2023/10/13 11:41:18;;;;;;;13.57;6.85;;;;;;;18.18;100.00;100333.34;7393676;19;20376;-68
2023/10/13 11:43:52;;;;;;;10.63;6.30;;;;;;;18.21;100.00;100334.00;7394679;19;20450;-69
2023/10/13 11:49:17;;;;;;;10.13;5.75;;;;;;;18.34;100.00;100325.31;7392387;19;20014;-72
2023/10/13 11:51:47;;;;;;;9.88;6.32;;;;;;;18.40;99.60;100323.13;7395469;19;20010;-69
2023/10/13 11:54:19;;;;;;;9.32;6.32;;;;;;;18.48;99.42;100313.84;7394483;19;20010;-69
2023/10/13 11:56:48;;;;;;;12.63;6.15;;;;;;;18.55;98.88;100320.47;7393654;19;20385;-68
2023/10/13 11:59:19;;;;;;;7.55;6.38;;;;;;;18.64;99.02;100313.72;7394091;19;20011;-67
2023/10/13 12:04:40;;;;;;;13.45;6.25;;;;;;;18.81;97.72;100296.72;7393097;19;20014;-68
2023/10/13 12:07:17;;;;;;;14.13;6.35;;;;;;;18.89;97.31;100294.41;7394998;19;20015;-69
2023/10/13 12:10:06;;;;;;;15.23;5.90;;;;;;;18.96;96.31;100286.97;7394021;19;20006;-68
2023/10/13 12:12:40;;;;;;;13.88;5.88;;;;;;;19.02;96.27;100276.78;7393918;19;20556;-72
2023/10/13 12:15:14;;;;;;;13.88;6.70;;;;;;;19.07;96.17;100271.16;7393446;19;20013;-71
2023/10/13 12:17:44;;;;;;;10.43;5.85;;;;;;;19.15;95.76;100268.84;7391799;19;20381;-69
2023/10/13 12:20:18;;;;;;;11.13;5.82;;;;;;;19.21;96.04;100265.78;7393788;19;20070;-68
2023/10/13 12:22:54;;;;;;;;;;;;;;;19.27;93.00;100271.66;7394506;19;20011;-68
2023/10/13 12:25:44;;;;;;;13.38;5.97;;;;;;;19.33;95.66;100256.13;7393938;19;19918;-68
2023/10/13 12:28:18;;;;;;;9.25;5.90;;;;;;;19.37;95.16;100262.97;7397244;19;20015;-67
2023/10/13 12:30:52;;;;;;;13.68;5.70;;;;;;;19.41;94.19;100254.78;7398549;19;20072;-69
2023/10/13 12:33:27;;;;;;;10.38;5.38;;;;;;;19.45;93.72;100256.28;7400287;19;20507;-70
2023/10/13 12:36:06;;;;;;;14.75;5.80;;;;;;;19.49;92.77;100247.16;7400640;19;20021;-70
2023/10/13 12:38:50;;;;;;;8.93;5.53;;;;;;;19.53;92.28;100238.00;7397793;19;20021;-69
2023/10/13 12:49:58;;;;;;;9.77;5.30;;;;;;;19.72;90.21;100232.28;7399968;19;20018;-69
2023/10/13 12:52:31;;;;;;;10.70;5.65;;;;;;;19.80;90.05;100229.09;7397743;19;20025;-68
2023/10/13 12:55:09;;;;;;;10.00;5.07;;;;;;;19.85;89.96;100214.56;7399521;19;20010;-68
2023/10/13 12:57:45;;;;;;;12.45;5.50;;;;;;;19.90;88.23;100202.72;7398051;19;20017;-69
2023/10/13 13:00:25;;;;;;;10.05;5.22;;;;;;;19.94;89.19;100213.06;7400000;19;20026;-68
2023/10/13 13:02:56;;;;;;;11.38;5.47;;;;;;;20.00;88.41;100195.81;7397322;19;20010;-69
2023/10/13 13:05:28;;;;;;;10.32;5.45;;;;;;;20.07;88.21;100206.88;7397062;19;20070;-67
2023/10/13 13:07:57;;;;;;;10.73;5.07;;;;;;;20.12;88.13;100196.72;7398042;19;20023;-70
2023/10/13 13:10:37;;;;;;;8.55;5.18;;;;;;;20.15;87.38;100196.53;7398804;19;20014;-69
2023/10/13 13:13:09;;;;;;;10.20;5.03;;;;;;;20.23;86.63;100196.00;7399219;19;20010;-68
2023/10/13 13:15:37;;;;;;;11.95;5.18;;;;;;;20.27;87.06;100171.69;7397029;19;20031;-69
2023/10/13 13:18:12;;;;;;;9.15;5.32;;;;;;;20.33;86.65;100168.59;7397236;19;20473;-68
2023/10/13 13:20:52;;;;;;;9.18;5.20;;;;;;;20.43;85.96;100178.59;7397350;19;20011;-68
2023/10/13 13:23:21;;;;;;;15.13;4.93;;;;;;;20.49;85.16;100172.81;7399587;19;20010;-69
2023/10/13 13:25:49;;;;;;;17.05;5.57;;;;;;;20.55;85.09;100167.03;7399577;19;20082;-69
2023/10/13 13:28:24;;;;;;;14.32;5.25;;;;;;;20.60;84.07;100169.34;7396661;19;20477;-69
2023/10/13 13:30:54;;;;;;;12.25;5.70;;;;;;;20.65;84.09;100157.41;7399936;19;20074;-70
2023/10/13 13:33:25;;;;;;;10.48;4.95;;;;;;;20.72;83.77;100170.31;7397839;19;20481;-68
2023/10/13 13:35:59;;;;;;;13.40;5.15;;;;;;;20.81;82.53;100169.63;7399496;19;20031;-68
2023/10/13 13:38:31;;;;;;;14.05;5.65;;;;;;;20.87;82.21;100173.66;7396902;19;20037;-70
2023/10/13 13:41:01;;;;;;;12.38;4.95;;;;;;;20.92;81.80;100159.00;7399679;19;20077;-70
2023/10/13 13:43:50;;;;;;;16.33;4.88;;;;;;;20.99;80.61;100156.72;7399227;19;20015;-69
2023/10/13 13:46:19;;;;;;;16.67;5.30;;;;;;;21.06;81.32;100162.47;7395906;19;20033;-69
2023/10/13 13:48:48;;;;;;;15.23;5.65;;;;;;;21.14;80.71;100170.72;7396579;19;20014;-69
2023/10/13 13:51:19;;;;;;;12.30;5.00;;;;;;;21.19;79.94;100157.06;7398641;19;20013;-69
2023/10/13 13:53:48;;;;;;;8.35;4.45;;;;;;;21.21;79.76;100166.63;7398211;19;20030;-68
2023/10/13 13:56:18;;;;;;;11.50;4.78;;;;;;;21.23;79.21;100161.19;7398327;19;20087;-69